Terminal Aerodrome Forecast
Issued by NWS

Home | Current Version | Previous Version | Text Only | Print | Product List | Glossary On
Versions: 1 2 3 4 5 6 7 8 9 10 11 12 13 14 15 16 17 18 19 20 21 22 23
463
FTUS43 KAPX 091501 AAA
TAFPLN
TAF AMD
KPLN 091501Z 0915/1012 32012KT 5SM -SHSN OVC010
      TEMPO 0915/0918 2SM -SHSN OVC007
     FM091900 33014G24KT 4SM -SHSN OVC012
     FM100200 34012G18KT P6SM -SHSN OVC018
     FM100900 33012G19KT P6SM BKN022=

USA.gov is the U.S. government's official web portal to all federal, state and local government web resources and services.